Time;durP1;ratioP1;P1;durP2;ratioP2;P2;SDS_P1;SDS_P2;PMS_P1;PMS_P2;Temp;Humidity;BMP_temperature;BMP_pressure;BME280_temperature;BME280_humidity;BME280_pressure;Samples;Min_cycle;Max_cycle;Signal;HPM_P1;HPM_P2
2022/11/01 00:01:02;;;;;;;1999.90;999.90;;;15.30;99.90;;;;;;5013491;28;20026;-83
2022/11/01 00:03:27;;;;;;;1999.90;999.90;;;15.30;99.90;;;;;;5014133;28;20484;-83
2022/11/01 00:05:53;;;;;;;1999.90;999.90;;;15.40;99.90;;;;;;4995630;28;20547;-82
2022/11/01 00:08:19;;;;;;;1999.90;999.90;;;15.20;99.90;;;;;;5013741;28;20437;-84
2022/11/01 00:10:44;;;;;;;1999.90;999.90;;;14.90;99.90;;;;;;4995895;28;20029;-83
2022/11/01 00:13:10;;;;;;;1999.90;999.90;;;14.80;99.90;;;;;;5013276;28;20068;-83
2022/11/01 00:15:35;;;;;;;1999.90;999.90;;;14.70;99.90;;;;;;5013939;28;20508;-83
2022/11/01 00:18:01;;;;;;;1999.90;999.90;;;14.70;99.90;;;;;;5013578;28;20121;-83
2022/11/01 00:20:27;;;;;;;1999.90;999.90;;;14.70;99.90;;;;;;5013334;28;20104;-83
2022/11/01 00:22:52;;;;;;;1999.90;999.90;;;14.70;99.90;;;;;;5011762;28;20113;-83
2022/11/01 00:25:18;;;;;;;1999.90;999.90;;;14.70;99.90;;;;;;5013110;28;20083;-81
2022/11/01 00:27:44;;;;;;;1999.90;999.90;;;14.70;99.90;;;;;;5013482;28;20057;-83
2022/11/01 00:30:10;;;;;;;1999.90;999.90;;;14.70;99.90;;;;;;5013365;28;20057;-83
2022/11/01 00:32:35;;;;;;;1999.90;999.90;;;14.80;99.90;;;;;;5013424;28;20322;-83
2022/11/01 00:35:01;;;;;;;1999.90;999.90;;;14.70;99.90;;;;;;5013004;28;20037;-83
2022/11/01 00:37:28;;;;;;;1999.90;999.90;;;14.80;99.90;;;;;;5013310;28;20033;-83
2022/11/01 00:39:53;;;;;;;1999.90;999.90;;;14.70;99.90;;;;;;5013253;28;20041;-83
2022/11/01 00:42:19;;;;;;;1999.90;999.90;;;14.60;99.90;;;;;;5010549;28;20484;-83
2022/11/01 00:44:45;;;;;;;1999.90;999.90;;;14.60;99.90;;;;;;5015064;28;20523;-83
2022/11/01 00:47:10;;;;;;;1999.90;999.90;;;14.50;99.90;;;;;;5033019;28;20519;-83
2022/11/01 00:49:36;;;;;;;1999.90;999.90;;;14.60;99.90;;;;;;5032035;28;20017;-83
2022/11/01 00:52:02;;;;;;;1999.90;999.90;;;14.50;99.90;;;;;;5032536;28;20029;-83
2022/11/01 00:54:27;;;;;;;1999.90;999.90;;;14.60;99.90;;;;;;5032441;28;20055;-83
2022/11/01 00:56:53;;;;;;;1999.90;999.90;;;14.60;99.90;;;;;;5031507;28;20092;-83
2022/11/01 00:59:19;;;;;;;1999.90;999.90;;;14.60;99.90;;;;;;5032525;28;20028;-83
2022/11/01 01:01:45;;;;;;;1999.90;999.90;;;14.50;99.90;;;;;;5031871;28;20392;-83
2022/11/01 01:04:10;;;;;;;1999.90;999.90;;;14.50;99.90;;;;;;5032479;28;20021;-83
2022/11/01 01:06:36;;;;;;;1999.90;999.90;;;14.50;99.90;;;;;;5031504;28;20084;-83
2022/11/01 01:09:02;;;;;;;1999.90;999.90;;;14.50;99.90;;;;;;5031957;28;20538;-83
2022/11/01 01:11:28;;;;;;;1999.90;999.90;;;14.60;99.90;;;;;;5032630;28;20056;-83
2022/11/01 01:13:53;;;;;;;1999.90;999.90;;;14.60;99.90;;;;;;5032225;28;20493;-83
2022/11/01 01:16:19;;;;;;;1999.90;999.90;;;14.60;99.90;;;;;;5032379;28;20021;-83
2022/11/01 01:18:45;;;;;;;1999.90;999.90;;;14.50;99.90;;;;;;5032132;28;20433;-83
2022/11/01 01:21:12;;;;;;;1999.90;999.90;;;14.50;99.90;;;;;;5031048;28;20026;-82
2022/11/01 01:23:38;;;;;;;1999.90;999.90;;;14.50;99.90;;;;;;5013826;28;20512;-83
2022/11/01 01:26:09;;;;;;;1999.90;999.90;;;14.50;99.90;;;;;;5014394;28;20068;-83
2022/11/01 01:28:35;;;;;;;1999.90;999.90;;;14.60;99.90;;;;;;5031588;28;20455;-83
2022/11/01 01:31:08;;;;;;;1999.90;999.90;;;14.60;99.90;;;;;;5013480;28;20022;-83
2022/11/01 01:33:34;;;;;;;1999.90;999.90;;;14.70;99.90;;;;;;5014369;28;20032;-83
2022/11/01 01:36:01;;;;;;;1999.90;999.90;;;14.80;99.90;;;;;;5031993;28;20078;-83
2022/11/01 01:38:27;;;;;;;1999.90;999.90;;;14.70;99.90;;;;;;5031838;28;20028;-83
2022/11/01 01:40:53;;;;;;;1999.90;999.90;;;14.70;99.90;;;;;;5013590;28;20034;-83
2022/11/01 01:43:18;;;;;;;1999.90;999.90;;;14.80;99.90;;;;;;5032255;28;20401;-83
2022/11/01 01:45:44;;;;;;;1999.90;999.90;;;15.00;99.90;;;;;;5032358;28;20079;-83
2022/11/01 01:48:23;;;;;;;1999.90;999.90;;;15.10;99.90;;;;;;5032077;28;20096;-83
2022/11/01 01:50:55;;;;;;;1999.90;999.90;;;15.20;99.90;;;;;;5031974;28;20033;-84
2022/11/01 01:53:24;;;;;;;1999.90;999.90;;;15.30;99.90;;;;;;5031993;28;20136;-83
2022/11/01 01:55:59;;;;;;;1999.90;999.90;;;15.40;99.90;;;;;;5014339;28;20123;-83
2022/11/01 01:58:32;;;;;;;1999.90;999.90;;;15.50;99.90;;;;;;5014129;28;20029;-83
2022/11/01 02:00:58;;;;;;;1999.90;999.90;;;15.50;99.90;;;;;;5024632;28;20036;-83
2022/11/01 02:03:31;;;;;;;1999.90;999.90;;;15.40;99.90;;;;;;5012235;28;20037;-83
2022/11/01 02:06:12;;;;;;;1999.90;999.90;;;15.40;99.90;;;;;;5011310;28;20034;-83
2022/11/01 02:08:43;;;;;;;1999.90;999.90;;;15.30;99.90;;;;;;5011936;28;20015;-83
2022/11/01 02:11:10;;;;;;;1999.90;999.90;;;15.30;99.90;;;;;;5011998;28;20097;-83
2022/11/01 02:13:36;;;;;;;1999.90;999.90;;;15.30;99.90;;;;;;5012028;28;20029;-83
2022/11/01 02:16:14;;;;;;;1999.90;999.90;;;15.50;99.90;;;;;;4994539;28;20073;-83
2022/11/01 02:18:48;;;;;;;1999.90;999.90;;;15.50;99.90;;;;;;4994352;28;20392;-83
2022/11/01 02:21:28;;;;;;;1999.90;999.90;;;15.50;99.90;;;;;;5021641;28;20079;-83
2022/11/01 02:24:12;;;;;;;1999.90;999.90;;;15.60;99.90;;;;;;5031752;28;20100;-83
2022/11/01 02:26:56;;;;;;;1999.90;999.90;;;15.60;99.90;;;;;;5031596;28;20076;-82
2022/11/01 02:29:57;;;;;;;1999.90;999.90;;;15.60;99.90;;;;;;5031745;28;20018;-83
2022/11/01 02:32:56;;;;;;;1999.90;999.90;;;15.40;99.90;;;;;;5031688;28;20092;-83
2022/11/01 02:35:23;;;;;;;1999.90;999.90;;;15.20;99.90;;;;;;5030175;28;20488;-83
2022/11/01 02:38:05;;;;;;;1999.90;999.90;;;15.10;99.90;;;;;;5031480;28;20026;-83
2022/11/01 02:40:52;;;;;;;1999.90;999.90;;;15.10;99.90;;;;;;5031147;28;20507;-83
2022/11/01 02:43:24;;;;;;;1999.90;999.90;;;15.20;99.90;;;;;;5034739;28;20030;-83
2022/11/01 02:45:50;;;;;;;1999.90;999.90;;;15.20;99.90;;;;;;5035320;28;20384;-83
2022/11/01 02:48:21;;;;;;;1999.90;999.90;;;15.20;99.90;;;;;;5034973;28;20503;-83
2022/11/01 02:50:53;;;;;;;1999.90;999.90;;;15.20;99.90;;;;;;5034497;28;20030;-83
2022/11/01 02:53:18;;;;;;;1999.90;999.90;;;15.10;99.90;;;;;;5028468;28;20604;-83
2022/11/01 02:55:44;;;;;;;1999.90;999.90;;;15.10;99.90;;;;;;5015150;28;20112;-83
2022/11/01 02:58:26;;;;;;;1999.90;999.90;;;15.00;99.90;;;;;;5014898;28;20053;-83
2022/11/01 03:00:52;;;;;;;1999.90;999.90;;;15.00;99.90;;;;;;5014928;28;20018;-83
2022/11/01 03:03:31;;;;;;;1999.90;999.90;;;15.00;99.90;;;;;;4997338;28;20036;-83
2022/11/01 03:05:59;;;;;;;1999.90;999.90;;;15.00;99.90;;;;;;5014645;28;20026;-83
2022/11/01 03:08:39;;;;;;;1999.90;999.90;;;14.90;99.90;;;;;;5014251;28;20052;-83
2022/11/01 03:11:25;;;;;;;1999.90;999.90;;;14.80;99.90;;;;;;5014821;28;20021;-83
2022/11/01 03:14:14;;;;;;;1999.90;999.90;;;14.80;99.90;;;;;;4997078;28;20018;-83
2022/11/01 03:16:52;;;;;;;1999.90;999.90;;;14.90;99.90;;;;;;5014850;28;20026;-83
2022/11/01 03:19:47;;;;;;;1999.90;999.90;;;14.90;99.90;;;;;;5014696;28;20083;-82
2022/11/01 03:22:25;;;;;;;1999.90;999.90;;;14.90;99.90;;;;;;5014336;28;20022;-83
2022/11/01 03:25:38;;;;;;;1999.90;999.90;;;14.90;99.90;;;;;;5014425;28;20581;-83
2022/11/01 03:27:59;;;;;;;1999.90;999.90;;;14.90;99.90;;;;;;5013554;28;20026;-82
2022/11/01 03:30:28;;;;;;;1999.90;999.90;;;14.90;99.90;;;;;;5014364;28;20117;-83
2022/11/01 03:32:56;;;;;;;1999.90;999.90;;;14.80;99.90;;;;;;5014796;28;20084;-83
2022/11/01 03:35:30;;;;;;;1999.90;999.90;;;14.90;99.90;;;;;;5014512;28;20029;-82
2022/11/01 03:38:03;;;;;;;1999.90;999.90;;;15.00;99.90;;;;;;5014600;28;20022;-83
2022/11/01 03:40:29;;;;;;;1999.90;999.90;;;15.00;99.90;;;;;;5018792;28;20030;-83
2022/11/01 03:43:01;;;;;;;1999.90;999.90;;;15.00;99.90;;;;;;5033861;28;20075;-83
2022/11/01 03:45:29;;;;;;;1999.90;999.90;;;15.10;99.90;;;;;;5034632;28;20082;-83
2022/11/01 03:47:54;;;;;;;1999.90;999.90;;;15.10;99.90;;;;;;5018358;28;20112;-83
2022/11/01 03:50:25;;;;;;;1999.90;999.90;;;15.10;99.90;;;;;;5035806;28;20499;-83
2022/11/01 03:52:51;;;;;;;1999.90;999.90;;;15.10;99.90;;;;;;5032968;28;20497;-83
2022/11/01 03:55:18;;;;;;;1999.90;999.90;;;15.00;99.90;;;;;;5015688;28;20112;-83
2022/11/01 03:57:47;;;;;;;1999.90;999.90;;;15.00;99.90;;;;;;5033674;28;20025;-83
2022/11/01 04:00:19;;;;;;;1999.90;999.90;;;15.10;99.90;;;;;;5026986;28;20108;-83
2022/11/01 04:02:46;;;;;;;1999.90;999.90;;;15.00;99.90;;;;;;4998617;28;20022;-83
2022/11/01 04:05:12;;;;;;;1999.90;999.90;;;15.20;99.90;;;;;;5015794;28;20037;-83
2022/11/01 04:07:38;;;;;;;1999.90;999.90;;;15.20;99.90;;;;;;5015421;28;20042;-83
2022/11/01 04:10:05;;;;;;;1999.90;999.90;;;15.20;99.90;;;;;;5014187;28;20092;-83
2022/11/01 04:12:30;;;;;;;1999.90;999.90;;;15.20;99.90;;;;;;5013333;28;20022;-83
2022/11/01 04:20:33;;;;;;;1999.90;999.90;;;15.20;99.90;;;;;;5013339;28;20048;-83
2022/11/01 04:23:04;;;;;;;1999.90;999.90;;;15.20;99.90;;;;;;5004617;28;20049;-83
2022/11/01 04:25:30;;;;;;;1999.90;999.90;;;15.10;99.90;;;;;;5022587;28;20025;-83
2022/11/01 04:27:57;;;;;;;1999.90;999.90;;;15.00;99.90;;;;;;5015808;28;20030;-83
2022/11/01 04:30:24;;;;;;;1999.90;999.90;;;15.00;99.90;;;;;;5015661;28;20029;-83
2022/11/01 04:32:49;;;;;;;1999.90;999.90;;;15.00;99.90;;;;;;5015763;28;20389;-84
2022/11/01 04:35:15;;;;;;;1999.90;999.90;;;15.00;99.90;;;;;;5013670;28;20037;-82
2022/11/01 04:37:41;;;;;;;1999.90;999.90;;;14.90;99.90;;;;;;4997911;28;20041;-83
2022/11/01 04:40:07;;;;;;;1999.90;999.90;;;14.90;99.90;;;;;;5017707;28;20045;-83
2022/11/01 04:42:36;;;;;;;1999.90;999.90;;;14.90;99.90;;;;;;5014117;28;20018;-83
2022/11/01 04:45:04;;;;;;;1999.90;999.90;;;14.90;99.90;;;;;;5013011;28;20101;-83
2022/11/01 04:47:30;;;;;;;1999.90;999.90;;;14.90;99.90;;;;;;5013007;28;20018;-83
2022/11/01 04:49:55;;;;;;;1999.90;999.90;;;14.80;99.90;;;;;;5013135;28;20397;-83
2022/11/01 04:52:21;;;;;;;1999.90;999.90;;;14.80;99.90;;;;;;5013213;28;20489;-83
2022/11/01 04:54:47;;;;;;;1999.90;999.90;;;14.90;99.90;;;;;;5012717;28;20085;-83
2022/11/01 04:57:23;;;;;;;1999.90;999.90;;;14.90;99.90;;;;;;5006878;28;20022;-83
2022/11/01 04:59:53;;;;;;;1999.90;999.90;;;15.00;99.90;;;;;;5006407;28;20152;-82
2022/11/01 05:02:20;;;;;;;1999.90;999.90;;;14.90;99.90;;;;;;4993331;28;20030;-83
2022/11/01 05:04:45;;;;;;;1999.90;999.90;;;14.90;99.90;;;;;;4992290;28;20429;-83
2022/11/01 05:07:12;;;;;;;1999.90;999.90;;;15.00;99.90;;;;;;4991514;28;20061;-82
2022/11/01 05:09:38;;;;;;;1999.90;999.90;;;15.00;99.90;;;;;;4991702;28;20030;-83
2022/11/01 05:12:03;;;;;;;1999.90;999.90;;;15.00;99.90;;;;;;4992955;28;20030;-82
2022/11/01 05:14:32;;;;;;;1999.90;999.90;;;15.00;99.90;;;;;;4992859;28;20031;-83
2022/11/01 05:16:58;;;;;;;1999.90;999.90;;;14.90;99.90;;;;;;4992934;28;20029;-83
2022/11/01 05:19:24;;;;;;;1999.90;999.90;;;14.90;99.90;;;;;;4992110;28;20034;-83
2022/11/01 05:21:50;;;;;;;1999.90;999.90;;;15.00;99.90;;;;;;4992700;28;20105;-83
2022/11/01 05:24:16;;;;;;;1999.90;999.90;;;15.00;99.90;;;;;;4991849;28;20455;-83
2022/11/01 05:26:42;;;;;;;1999.90;999.90;;;15.10;99.90;;;;;;4991664;28;20040;-83
2022/11/01 05:29:08;;;;;;;1999.90;999.90;;;15.10;99.90;;;;;;4992885;28;20494;-83
2022/11/01 05:31:34;;;;;;;1999.90;999.90;;;15.10;99.90;;;;;;4993299;28;20099;-83
2022/11/01 05:34:00;;;;;;;1999.90;999.90;;;15.00;99.90;;;;;;4993040;28;20022;-83
2022/11/01 05:36:25;;;;;;;1999.90;999.90;;;15.10;99.90;;;;;;4992544;28;20049;-83
2022/11/01 05:38:55;;;;;;;1999.90;999.90;;;15.10;99.90;;;;;;4991174;28;20065;-82
2022/11/01 05:41:21;;;;;;;1999.90;999.90;;;15.10;99.90;;;;;;4991449;28;20027;-83
2022/11/01 05:43:46;;;;;;;1999.90;999.90;;;15.10;99.90;;;;;;4992963;28;20505;-83
2022/11/01 05:46:12;;;;;;;1999.90;999.90;;;15.00;99.90;;;;;;4992789;28;20034;-82
2022/11/01 05:48:38;;;;;;;1999.90;999.90;;;15.10;99.90;;;;;;4992717;28;20022;-83
2022/11/01 05:51:03;;;;;;;1999.90;999.90;;;15.00;99.90;;;;;;4992445;28;20033;-83
2022/11/01 05:53:29;;;;;;;1999.90;999.90;;;15.00;99.90;;;;;;5001806;28;20092;-83
2022/11/01 05:55:56;;;;;;;1999.90;999.90;;;15.00;99.90;;;;;;5011676;28;20124;-83
2022/11/01 05:58:21;;;;;;;1999.90;999.90;;;15.00;99.90;;;;;;4994337;28;20022;-83
2022/11/01 06:00:47;;;;;;;1999.90;999.90;;;15.10;99.90;;;;;;5025600;28;20060;-83
2022/11/01 06:03:13;;;;;;;1999.90;999.90;;;15.10;99.90;;;;;;5031912;28;20100;-83
2022/11/01 06:05:38;;;;;;;1999.90;999.90;;;15.10;99.90;;;;;;5032163;28;20039;-83
2022/11/01 06:08:04;;;;;;;1999.90;999.90;;;15.20;99.90;;;;;;5031793;28;20034;-83
2022/11/01 06:10:31;;;;;;;1999.90;999.90;;;15.30;99.90;;;;;;5012504;28;20128;-83
2022/11/01 06:12:58;;;;;;;1999.90;999.90;;;15.20;99.90;;;;;;5013014;28;20509;-82
2022/11/01 06:15:24;;;;;;;1999.90;999.90;;;15.30;99.90;;;;;;5031970;28;20576;-83
2022/11/01 06:17:57;;;;;;;1999.90;999.90;;;15.30;99.90;;;;;;5035898;28;20100;-83
2022/11/01 06:20:22;;;;;;;;;;;15.40;99.90;;;;;;5035635;28;20033;-83
2022/11/01 06:22:48;;;;;;;1999.90;999.90;;;15.40;99.90;;;;;;5034140;28;20326;-83
2022/11/01 06:25:14;;;;;;;1999.90;999.90;;;15.40;99.90;;;;;;5035225;28;20108;-82
2022/11/01 06:27:39;;;;;;;1999.90;999.90;;;15.30;99.90;;;;;;5034149;28;20427;-83
2022/11/01 06:30:05;;;;;;;1999.90;999.90;;;15.20;99.90;;;;;;5034451;28;20036;-83
2022/11/01 06:32:31;;;;;;;1999.90;999.90;;;15.20;99.90;;;;;;5018773;28;20037;-82
2022/11/01 06:34:57;;;;;;;1999.90;999.90;;;15.20;99.90;;;;;;5028291;28;20408;-83
2022/11/01 06:37:22;;;;;;;1999.90;999.90;;;15.20;99.90;;;;;;5034849;28;20025;-83
2022/11/01 06:39:48;;;;;;;1999.90;999.90;;;15.20;99.90;;;;;;5016964;28;20108;-83
2022/11/01 06:42:13;;;;;;;1999.90;999.90;;;15.30;99.90;;;;;;5035215;28;20469;-83
2022/11/01 06:44:39;;;;;;;1999.90;999.90;;;15.20;99.90;;;;;;5016382;28;20028;-83
2022/11/01 06:47:05;;;;;;;1999.90;999.90;;;15.30;99.90;;;;;;5017199;28;20030;-83
2022/11/01 06:49:31;;;;;;;1999.90;999.90;;;15.30;99.90;;;;;;5035122;28;20295;-83
2022/11/01 06:51:56;;;;;;;1999.90;999.90;;;15.30;99.90;;;;;;5034934;28;20087;-84
2022/11/01 06:54:22;;;;;;;1999.90;999.90;;;15.30;99.90;;;;;;5034632;28;20072;-83
2022/11/01 06:56:48;;;;;;;1999.90;999.90;;;15.40;99.90;;;;;;5035027;28;20025;-82
2022/11/01 06:59:15;;;;;;;1999.90;999.90;;;15.40;99.90;;;;;;5027935;28;20026;-83
2022/11/01 07:01:42;;;;;;;1999.90;999.90;;;15.30;99.90;;;;;;5015265;28;20050;-83
2022/11/01 07:04:07;;;;;;;1999.90;999.90;;;15.30;99.90;;;;;;5015111;28;20022;-83
2022/11/01 07:06:33;;;;;;;1999.90;999.90;;;15.30;99.90;;;;;;4997034;28;20030;-83
2022/11/01 07:09:00;;;;;;;1999.90;999.90;;;15.30;99.90;;;;;;5014797;28;20034;-83
2022/11/01 07:11:25;;;;;;;1999.90;999.90;;;15.40;99.90;;;;;;5025271;28;20029;-83
2022/11/01 07:13:51;;;;;;;1999.90;999.90;;;15.40;99.90;;;;;;5034438;28;20108;-83
2022/11/01 07:16:17;;;;;;;1999.90;999.90;;;15.40;99.90;;;;;;5020138;28;20061;-83
2022/11/01 07:18:43;;;;;;;1999.90;999.90;;;15.40;99.90;;;;;;5013809;28;20022;-83
2022/11/01 07:21:09;;;;;;;1999.90;999.90;;;15.40;99.90;;;;;;5013943;28;20048;-82
2022/11/01 07:23:35;;;;;;;1999.90;999.90;;;15.40;99.90;;;;;;5013825;28;20060;-83
2022/11/01 07:26:01;;;;;;;1999.90;999.90;;;15.50;99.90;;;;;;5014468;28;20057;-83
2022/11/01 07:28:27;;;;;;;1999.90;999.90;;;15.50;99.90;;;;;;5013533;28;20114;-83
2022/11/01 07:30:54;;;;;;;1999.90;999.90;;;15.60;99.90;;;;;;5013572;28;20497;-84
2022/11/01 07:33:20;;;;;;;1999.90;999.90;;;15.70;99.90;;;;;;5014490;28;20087;-83
2022/11/01 07:35:46;;;;;;;1999.90;999.90;;;15.80;99.90;;;;;;5014631;28;20108;-83
2022/11/01 07:38:12;;;;;;;1999.90;999.90;;;16.00;99.90;;;;;;5013689;28;20495;-82
2022/11/01 07:40:38;;;;;;;1999.90;999.90;;;16.00;99.90;;;;;;5012882;28;20081;-83
2022/11/01 07:43:05;;;;;;;1999.90;999.90;;;16.00;99.90;;;;;;4996595;28;20413;-83
2022/11/01 07:45:32;;;;;;;1999.90;999.90;;;16.10;99.90;;;;;;5014210;28;20452;-83
2022/11/01 07:48:08;;;;;;;1999.90;999.90;;;16.10;99.90;;;;;;5013487;28;20112;-84
2022/11/01 07:50:35;;;;;;;1999.90;999.90;;;16.00;99.90;;;;;;5013984;28;20440;-84
2022/11/01 07:53:08;;;;;;;1999.90;999.90;;;16.00;99.90;;;;;;5013557;28;20492;-83
2022/11/01 07:55:34;;;;;;;1999.90;999.90;;;16.10;99.90;;;;;;5014203;28;20037;-83
2022/11/01 07:58:00;;;;;;;1999.90;999.90;;;16.10;99.90;;;;;;4996276;28;20500;-83
2022/11/01 08:00:26;;;;;;;1999.90;999.90;;;16.00;99.90;;;;;;4994947;28;20022;-84
2022/11/01 08:03:02;;;;;;;1999.90;999.90;;;16.00;99.90;;;;;;5027151;28;20108;-83
2022/11/01 08:05:29;;;;;;;1999.90;999.90;;;16.10;99.90;;;;;;5033655;28;20026;-83
2022/11/01 08:07:55;;;;;;;1999.90;999.90;;;16.20;99.90;;;;;;5015563;28;20021;-83
2022/11/01 08:10:20;;;;;;;1999.90;999.90;;;16.20;99.90;;;;;;5015121;28;20400;-84
2022/11/01 08:12:46;;;;;;;1999.90;999.90;;;16.40;99.90;;;;;;5032450;28;20484;-84
2022/11/01 08:15:12;;;;;;;1999.90;999.90;;;16.50;99.90;;;;;;5033270;28;20040;-83
2022/11/01 08:17:37;;;;;;;1999.90;999.90;;;16.50;99.90;;;;;;5028864;28;20473;-83
2022/11/01 08:20:05;;;;;;;1999.90;999.90;;;16.50;99.90;;;;;;4995024;28;20092;-83
2022/11/01 08:22:31;;;;;;;1999.90;999.90;;;16.50;99.90;;;;;;5013324;28;20379;-83
2022/11/01 08:24:57;;;;;;;1999.90;999.90;;;16.50;99.90;;;;;;4995336;28;20037;-83
2022/11/01 08:27:22;;;;;;;1999.90;999.90;;;16.50;99.90;;;;;;4995658;28;20040;-84
2022/11/01 08:29:48;;;;;;;1999.90;999.90;;;16.50;99.90;;;;;;5013601;28;20045;-83
2022/11/01 08:32:13;;;;;;;1999.90;999.90;;;16.60;99.90;;;;;;4995866;28;20038;-83
2022/11/01 08:34:39;;;;;;;1999.90;999.90;;;16.70;99.90;;;;;;5024555;28;20033;-84
2022/11/01 08:37:05;;;;;;;1999.90;999.90;;;16.50;99.90;;;;;;5032684;28;20022;-83
2022/11/01 08:39:31;;;;;;;1999.90;999.90;;;16.50;99.90;;;;;;5029155;28;20033;-84
2022/11/01 08:41:58;;;;;;;1999.90;999.90;;;16.40;99.90;;;;;;5033142;28;20064;-84
2022/11/01 08:44:23;;;;;;;1999.90;999.90;;;16.40;99.90;;;;;;5032889;28;20488;-83
2022/11/01 08:46:52;;;;;;;1999.90;999.90;;;16.60;99.90;;;;;;5014920;28;20032;-84
2022/11/01 08:49:18;;;;;;;1999.90;999.90;;;16.80;99.90;;;;;;5032332;28;20436;-84
2022/11/01 08:51:44;;;;;;;1999.90;999.90;;;16.90;99.90;;;;;;5032703;28;20055;-84
2022/11/01 08:54:11;;;;;;;1999.90;999.90;;;17.00;99.90;;;;;;5032638;28;20042;-84
2022/11/01 08:56:36;;;;;;;1999.90;999.90;;;17.00;99.90;;;;;;5032544;28;20439;-83
2022/11/01 08:59:02;;;;;;;1999.90;999.90;;;17.10;99.90;;;;;;5021269;28;20030;-84
2022/11/01 09:01:28;;;;;;;1999.90;999.90;;;17.10;99.90;;;;;;5012996;28;20037;-84
2022/11/01 09:03:57;;;;;;;1999.90;999.90;;;17.10;99.90;;;;;;4995466;28;20022;-84
2022/11/01 09:06:23;;;;;;;1999.90;999.90;;;17.10;99.90;;;;;;4994412;28;20472;-83
2022/11/01 09:08:49;;;;;;;1999.90;999.90;;;17.20;99.90;;;;;;4994926;28;20409;-84
2022/11/01 09:11:15;;;;;;;1999.90;999.90;;;17.30;99.90;;;;;;5012621;28;20041;-83
2022/11/01 09:13:41;;;;;;;1999.90;999.90;;;17.40;99.90;;;;;;5012056;28;20026;-84
2022/11/01 09:16:07;;;;;;;1999.90;999.90;;;17.50;99.90;;;;;;5012796;28;20056;-84
2022/11/01 09:18:33;;;;;;;1999.90;999.90;;;17.50;99.90;;;;;;5011511;28;20088;-83
2022/11/01 09:20:59;;;;;;;1999.90;999.90;;;17.50;99.90;;;;;;4999042;28;20488;-83
2022/11/01 09:23:25;;;;;;;1999.90;999.90;;;17.60;99.90;;;;;;5031803;28;20124;-83
2022/11/01 09:25:51;;;;;;;1999.90;999.90;;;17.50;99.90;;;;;;5032254;28;20477;-84
2022/11/01 09:28:16;;;;;;;1999.90;999.90;;;17.50;99.90;;;;;;5032125;28;20061;-83
2022/11/01 09:30:42;;;;;;;1999.90;999.90;;;17.50;99.90;;;;;;5032208;28;20404;-83
2022/11/01 09:33:08;;;;;;;1999.90;999.90;;;17.50;99.90;;;;;;5032095;28;20033;-83
2022/11/01 09:35:34;;;;;;;1999.90;999.90;;;17.60;99.90;;;;;;5032097;28;20044;-83
2022/11/01 09:38:01;;;;;;;1999.90;999.90;;;17.60;99.90;;;;;;5013555;28;20033;-84
2022/11/01 09:40:31;;;;;;;1999.90;999.90;;;17.70;99.90;;;;;;5032008;28;20057;-84
2022/11/01 09:42:58;;;;;;;1999.90;999.90;;;17.70;99.90;;;;;;5032111;28;20546;-84
2022/11/01 09:45:28;;;;;;;1999.90;999.90;;;17.60;99.90;;;;;;5014312;28;20523;-83
2022/11/01 09:47:56;;;;;;;1999.90;999.90;;;17.60;99.90;;;;;;5013266;28;20029;-84
2022/11/01 09:50:24;;;;;;;1999.90;999.90;;;17.50;99.90;;;;;;5012631;28;20076;-83
2022/11/01 09:52:52;;;;;;;1999.90;999.90;;;17.40;99.90;;;;;;5014919;28;20437;-84
2022/11/01 09:55:27;;;;;;;1999.90;999.90;;;17.50;99.90;;;;;;5016232;28;20057;-83
2022/11/01 09:58:16;;;;;;;1999.90;999.90;;;17.50;99.90;;;;;;4998482;28;20036;-84
2022/11/01 10:00:47;;;;;;;1999.90;999.90;;;17.50;99.90;;;;;;5016041;28;20124;-83
2022/11/01 10:03:39;;;;;;;1999.90;999.90;;;17.60;99.90;;;;;;5016083;28;20036;-83
2022/11/01 10:06:25;;;;;;;1999.90;999.90;;;17.50;99.90;;;;;;5016243;28;20056;-84
2022/11/01 10:09:34;;;;;;;1999.90;999.90;;;17.70;99.90;;;;;;5020611;28;20061;-83
2022/11/01 10:12:18;;;;;;;1999.90;999.90;;;17.90;99.90;;;;;;5007408;28;20048;-83
2022/11/01 10:15:05;;;;;;;1999.90;999.90;;;17.70;99.90;;;;;;5035665;28;20028;-84
2022/11/01 10:17:47;;;;;;;1999.90;999.90;;;17.60;99.90;;;;;;5015450;28;20037;-83
2022/11/01 10:20:14;;;;;;;1999.90;999.90;;;17.70;99.90;;;;;;5017542;28;20067;-83
2022/11/01 10:22:43;;;;;;;1999.90;999.90;;;17.70;99.90;;;;;;5034219;28;20029;-83
2022/11/01 10:25:18;;;;;;;1999.90;999.90;;;17.70;99.90;;;;;;5034311;28;20017;-83
2022/11/01 10:27:52;;;;;;;1999.90;999.90;;;17.70;99.90;;;;;;5017721;28;20051;-83
2022/11/01 10:30:19;;;;;;;1999.90;999.90;;;17.60;99.90;;;;;;5035335;28;20032;-85
2022/11/01 10:33:00;;;;;;;1999.90;999.90;;;17.40;99.90;;;;;;5035412;28;20496;-84
2022/11/01 10:35:39;;;;;;;1999.90;999.90;;;17.30;99.90;;;;;;5035139;28;20032;-84
2022/11/01 10:38:31;;;;;;;1999.90;999.90;;;17.10;99.90;;;;;;5034488;28;20024;-84
2022/11/01 10:41:12;;;;;;;1999.90;999.90;;;17.20;99.90;;;;;;5014832;28;20046;-84
2022/11/01 10:43:45;;;;;;;1999.90;999.90;;;17.50;99.90;;;;;;5015591;28;20026;-84
2022/11/01 10:46:13;;;;;;;;;;;17.60;99.90;;;;;;5016131;28;20481;-84
2022/11/01 10:48:51;;;;;;;1999.90;999.90;;;17.70;99.90;;;;;;5015390;28;19935;-84
2022/11/01 10:51:20;;;;;;;1999.90;999.90;;;17.80;99.90;;;;;;5015051;28;20556;-83
2022/11/01 10:53:52;;;;;;;1999.90;999.90;;;17.90;99.90;;;;;;5015377;28;20052;-83
2022/11/01 10:56:24;;;;;;;1999.90;999.90;;;17.70;99.90;;;;;;5014563;28;20034;-83
2022/11/01 10:59:14;;;;;;;1999.90;999.90;;;17.80;99.90;;;;;;5019259;28;20026;-83
2022/11/01 11:01:42;;;;;;;1999.90;999.90;;;17.80;99.90;;;;;;4996936;28;20034;-84
2022/11/01 11:04:15;;;;;;;1999.90;999.90;;;17.90;99.90;;;;;;5014477;28;20506;-83
2022/11/01 11:06:42;;;;;;;1999.90;999.90;;;17.90;99.90;;;;;;5014748;28;20041;-83
2022/11/01 11:09:43;;;;;;;1999.90;999.90;;;17.90;99.90;;;;;;5014808;28;20038;-84
2022/11/01 11:12:14;;;;;;;1999.90;999.90;;;18.00;99.90;;;;;;4994187;28;20103;-84
2022/11/01 11:14:41;;;;;;;1999.90;999.90;;;17.90;99.90;;;;;;5013953;28;20025;-84
2022/11/01 11:17:30;;;;;;;1999.90;999.90;;;18.00;99.90;;;;;;5014753;28;20026;-84
2022/11/01 11:20:03;;;;;;;1999.90;999.90;;;18.00;99.90;;;;;;5014628;28;20029;-84
2022/11/01 11:22:29;;;;;;;1999.90;999.90;;;18.10;99.90;;;;;;4996632;28;20030;-84
2022/11/01 11:24:57;;;;;;;1999.90;999.90;;;18.20;99.90;;;;;;5014249;28;20029;-84
2022/11/01 11:27:29;;;;;;;1999.90;999.90;;;18.20;99.90;;;;;;5014486;28;20100;-84
2022/11/01 11:30:01;;;;;;;1999.90;999.90;;;18.20;99.90;;;;;;5013145;28;20103;-84
2022/11/01 11:32:30;;;;;;;1999.90;999.90;;;18.30;99.90;;;;;;5034222;28;20036;-84
2022/11/01 11:35:07;;;;;;;1999.90;999.90;;;18.60;99.90;;;;;;5034093;28;20080;-84
2022/11/01 11:37:34;;;;;;;1999.90;999.90;;;18.70;99.90;;;;;;5016358;28;20033;-85
2022/11/01 11:40:33;;;;;;;1999.90;999.90;;;18.90;99.90;;;;;;5006315;28;20026;-83
2022/11/01 11:43:24;;;;;;;1999.90;999.90;;;18.70;99.90;;;;;;4981223;28;20173;-84
2022/11/01 11:46:11;;;;;;;1999.90;999.90;;;18.30;99.90;;;;;;4990674;28;20040;-84
2022/11/01 11:49:03;;;;;;;1999.90;999.90;;;18.30;99.90;;;;;;5014060;28;20034;-83
2022/11/01 11:51:32;;;;;;;1999.90;999.90;;;18.60;99.90;;;;;;5013966;28;20420;-83
2022/11/01 11:54:16;;;;;;;1999.90;999.90;;;18.70;99.90;;;;;;5014004;28;20064;-84
2022/11/01 11:56:43;;;;;;;1999.90;999.90;;;18.70;99.90;;;;;;4996305;28;20464;-84
2022/11/01 11:59:30;;;;;;;1999.90;999.90;;;18.80;99.90;;;;;;5012745;28;20041;-84
2022/11/01 12:01:58;;;;;;;1999.90;999.90;;;18.60;99.90;;;;;;5013591;28;20040;-84
2022/11/01 12:04:30;;;;;;;1999.90;999.90;;;18.60;99.90;;;;;;5013952;28;20030;-84
2022/11/01 12:06:55;;;;;;;1999.90;999.90;;;18.60;99.90;;;;;;5013639;28;20022;-83
2022/11/01 12:09:41;;;;;;;1999.90;999.90;;;18.70;99.90;;;;;;5013684;28;20026;-84
2022/11/01 12:12:17;;;;;;;1999.90;999.90;;;18.60;99.90;;;;;;5013807;28;20033;-83
2022/11/01 12:14:43;;;;;;;1999.90;999.90;;;18.50;99.90;;;;;;5012122;28;20030;-84
2022/11/01 12:17:32;;;;;;;1999.90;999.90;;;18.60;99.90;;;;;;5014345;28;20033;-84
2022/11/01 12:20:06;;;;;;;1999.90;999.90;;;18.50;99.90;;;;;;5015529;28;20022;-83